sensor_id;sensor_type;location;lat;lon;timestamp;P1;durP1;ratioP1;P2;durP2;ratioP2
52468;SDS011;38381;53.688;10.776;2023-06-14T00:03:21;3.88;;;2.50;;
52468;SDS011;38381;53.688;10.776;2023-06-14T00:08:22;4.57;;;2.65;;
52468;SDS011;38381;53.688;10.776;2023-06-14T00:13:24;4.93;;;3.63;;
52468;SDS011;38381;53.688;10.776;2023-06-14T00:18:25;6.65;;;2.97;;
52468;SDS011;38381;53.688;10.776;2023-06-14T00:23:26;18.88;;;3.15;;
52468;SDS011;38381;53.688;10.776;2023-06-14T00:28:27;4.83;;;2.93;;
52468;SDS011;38381;53.688;10.776;2023-06-14T00:33:27;6.40;;;3.05;;
52468;SDS011;38381;53.688;10.776;2023-06-14T00:38:27;3.85;;;2.72;;
52468;SDS011;38381;53.688;10.776;2023-06-14T00:43:28;3.30;;;2.67;;
52468;SDS011;38381;53.688;10.776;2023-06-14T00:48:28;4.45;;;2.60;;
52468;SDS011;38381;53.688;10.776;2023-06-14T00:53:30;3.63;;;3.03;;
52468;SDS011;38381;53.688;10.776;2023-06-14T00:58:34;3.35;;;2.80;;
52468;SDS011;38381;53.688;10.776;2023-06-14T01:03:34;5.10;;;3.38;;
52468;SDS011;38381;53.688;10.776;2023-06-14T01:08:39;4.35;;;2.97;;
52468;SDS011;38381;53.688;10.776;2023-06-14T01:13:51;4.60;;;2.78;;
52468;SDS011;38381;53.688;10.776;2023-06-14T01:18:53;5.83;;;3.13;;
52468;SDS011;38381;53.688;10.776;2023-06-14T01:23:56;4.38;;;2.83;;
52468;SDS011;38381;53.688;10.776;2023-06-14T01:28:57;4.50;;;3.23;;
52468;SDS011;38381;53.688;10.776;2023-06-14T01:33:58;5.13;;;3.70;;
52468;SDS011;38381;53.688;10.776;2023-06-14T01:38:59;5.10;;;3.47;;
52468;SDS011;38381;53.688;10.776;2023-06-14T01:43:59;4.47;;;3.50;;
52468;SDS011;38381;53.688;10.776;2023-06-14T01:49:01;6.43;;;2.85;;
52468;SDS011;38381;53.688;10.776;2023-06-14T01:54:02;10.38;;;3.70;;
52468;SDS011;38381;53.688;10.776;2023-06-14T01:59:02;5.13;;;3.70;;
52468;SDS011;38381;53.688;10.776;2023-06-14T02:04:03;3.40;;;2.43;;
52468;SDS011;38381;53.688;10.776;2023-06-14T02:09:03;4.65;;;3.53;;
52468;SDS011;38381;53.688;10.776;2023-06-14T02:14:04;4.22;;;3.28;;
52468;SDS011;38381;53.688;10.776;2023-06-14T02:19:04;6.03;;;3.47;;
52468;SDS011;38381;53.688;10.776;2023-06-14T02:24:05;3.83;;;3.38;;
52468;SDS011;38381;53.688;10.776;2023-06-14T02:29:07;4.35;;;3.15;;
52468;SDS011;38381;53.688;10.776;2023-06-14T02:34:09;5.78;;;3.75;;
52468;SDS011;38381;53.688;10.776;2023-06-14T02:39:10;4.50;;;3.10;;
52468;SDS011;38381;53.688;10.776;2023-06-14T02:44:13;9.25;;;3.83;;
52468;SDS011;38381;53.688;10.776;2023-06-14T02:49:15;5.10;;;3.17;;
52468;SDS011;38381;53.688;10.776;2023-06-14T02:54:15;3.40;;;3.07;;
52468;SDS011;38381;53.688;10.776;2023-06-14T02:59:15;11.10;;;4.32;;
52468;SDS011;38381;53.688;10.776;2023-06-14T03:04:17;4.65;;;3.22;;
52468;SDS011;38381;53.688;10.776;2023-06-14T03:09:17;4.72;;;4.03;;
52468;SDS011;38381;53.688;10.776;2023-06-14T03:14:18;4.93;;;3.70;;
52468;SDS011;38381;53.688;10.776;2023-06-14T03:19:19;5.60;;;4.57;;
52468;SDS011;38381;53.688;10.776;2023-06-14T03:24:20;6.20;;;4.10;;
52468;SDS011;38381;53.688;10.776;2023-06-14T03:29:20;5.70;;;4.05;;
52468;SDS011;38381;53.688;10.776;2023-06-14T03:34:21;7.53;;;5.22;;
52468;SDS011;38381;53.688;10.776;2023-06-14T03:39:22;6.63;;;3.93;;
52468;SDS011;38381;53.688;10.776;2023-06-14T03:44:22;5.03;;;4.18;;
52468;SDS011;38381;53.688;10.776;2023-06-14T03:49:22;6.00;;;3.88;;
52468;SDS011;38381;53.688;10.776;2023-06-14T03:54:23;4.32;;;2.95;;
52468;SDS011;38381;53.688;10.776;2023-06-14T03:59:24;5.23;;;4.03;;
52468;SDS011;38381;53.688;10.776;2023-06-14T04:04:25;8.43;;;4.20;;
52468;SDS011;38381;53.688;10.776;2023-06-14T04:09:30;8.05;;;3.83;;
52468;SDS011;38381;53.688;10.776;2023-06-14T04:14:31;5.70;;;4.13;;
52468;SDS011;38381;53.688;10.776;2023-06-14T04:19:33;4.93;;;3.63;;
52468;SDS011;38381;53.688;10.776;2023-06-14T04:24:33;6.85;;;4.10;;
52468;SDS011;38381;53.688;10.776;2023-06-14T04:29:34;4.30;;;3.40;;
52468;SDS011;38381;53.688;10.776;2023-06-14T04:34:36;4.88;;;3.40;;
52468;SDS011;38381;53.688;10.776;2023-06-14T04:39:37;6.80;;;4.20;;
52468;SDS011;38381;53.688;10.776;2023-06-14T04:44:38;9.95;;;4.05;;
52468;SDS011;38381;53.688;10.776;2023-06-14T04:49:40;5.82;;;3.78;;
52468;SDS011;38381;53.688;10.776;2023-06-14T04:54:40;4.63;;;3.53;;
52468;SDS011;38381;53.688;10.776;2023-06-14T04:59:43;5.38;;;3.70;;
52468;SDS011;38381;53.688;10.776;2023-06-14T05:04:44;5.30;;;3.87;;
52468;SDS011;38381;53.688;10.776;2023-06-14T05:09:45;4.65;;;3.17;;
52468;SDS011;38381;53.688;10.776;2023-06-14T05:14:45;6.22;;;4.03;;
52468;SDS011;38381;53.688;10.776;2023-06-14T05:19:46;8.17;;;3.47;;
52468;SDS011;38381;53.688;10.776;2023-06-14T05:24:46;9.65;;;3.70;;
52468;SDS011;38381;53.688;10.776;2023-06-14T05:29:48;3.83;;;3.23;;
52468;SDS011;38381;53.688;10.776;2023-06-14T05:34:49;6.60;;;3.72;;
52468;SDS011;38381;53.688;10.776;2023-06-14T05:39:50;6.22;;;3.30;;
52468;SDS011;38381;53.688;10.776;2023-06-14T05:44:50;4.57;;;3.03;;
52468;SDS011;38381;53.688;10.776;2023-06-14T05:49:51;5.60;;;3.28;;
52468;SDS011;38381;53.688;10.776;2023-06-14T05:54:51;4.77;;;3.30;;
52468;SDS011;38381;53.688;10.776;2023-06-14T05:59:52;4.03;;;2.85;;
52468;SDS011;38381;53.688;10.776;2023-06-14T06:04:52;3.97;;;2.35;;
52468;SDS011;38381;53.688;10.776;2023-06-14T06:09:53;5.80;;;2.57;;
52468;SDS011;38381;53.688;10.776;2023-06-14T06:14:53;5.17;;;2.90;;
52468;SDS011;38381;53.688;10.776;2023-06-14T06:19:53;3.67;;;2.50;;
52468;SDS011;38381;53.688;10.776;2023-06-14T06:24:54;4.75;;;3.08;;
52468;SDS011;38381;53.688;10.776;2023-06-14T06:29:54;4.22;;;2.92;;
52468;SDS011;38381;53.688;10.776;2023-06-14T06:34:55;5.00;;;2.67;;
52468;SDS011;38381;53.688;10.776;2023-06-14T06:39:55;7.63;;;2.35;;
52468;SDS011;38381;53.688;10.776;2023-06-14T06:44:56;4.77;;;2.17;;
52468;SDS011;38381;53.688;10.776;2023-06-14T06:49:56;3.53;;;2.47;;
52468;SDS011;38381;53.688;10.776;2023-06-14T06:54:57;4.80;;;3.00;;
52468;SDS011;38381;53.688;10.776;2023-06-14T06:59:57;7.47;;;3.03;;
52468;SDS011;38381;53.688;10.776;2023-06-14T07:04:58;4.87;;;3.00;;
52468;SDS011;38381;53.688;10.776;2023-06-14T07:09:58;4.78;;;2.97;;
52468;SDS011;38381;53.688;10.776;2023-06-14T07:15:00;3.17;;;2.63;;
52468;SDS011;38381;53.688;10.776;2023-06-14T07:20:02;3.45;;;2.28;;
52468;SDS011;38381;53.688;10.776;2023-06-14T07:25:12;9.27;;;2.75;;
52468;SDS011;38381;53.688;10.776;2023-06-14T07:30:15;5.85;;;2.75;;
52468;SDS011;38381;53.688;10.776;2023-06-14T07:35:16;2.42;;;2.00;;
52468;SDS011;38381;53.688;10.776;2023-06-14T07:40:16;4.32;;;2.42;;
52468;SDS011;38381;53.688;10.776;2023-06-14T07:45:17;4.57;;;2.38;;
52468;SDS011;38381;53.688;10.776;2023-06-14T07:50:18;2.53;;;1.92;;
52468;SDS011;38381;53.688;10.776;2023-06-14T07:55:18;5.45;;;2.50;;
52468;SDS011;38381;53.688;10.776;2023-06-14T08:00:19;10.40;;;2.83;;
52468;SDS011;38381;53.688;10.776;2023-06-14T08:05:20;4.07;;;2.97;;
52468;SDS011;38381;53.688;10.776;2023-06-14T08:10:21;3.17;;;2.50;;
52468;SDS011;38381;53.688;10.776;2023-06-14T08:15:22;8.95;;;2.45;;
52468;SDS011;38381;53.688;10.776;2023-06-14T08:20:22;6.50;;;2.90;;
52468;SDS011;38381;53.688;10.776;2023-06-14T08:25:24;3.90;;;2.53;;
52468;SDS011;38381;53.688;10.776;2023-06-14T08:30:24;4.90;;;2.83;;
52468;SDS011;38381;53.688;10.776;2023-06-14T08:35:25;5.07;;;2.75;;
52468;SDS011;38381;53.688;10.776;2023-06-14T08:40:25;3.67;;;2.75;;
52468;SDS011;38381;53.688;10.776;2023-06-14T08:45:27;3.67;;;2.80;;
52468;SDS011;38381;53.688;10.776;2023-06-14T08:50:27;3.58;;;2.85;;
52468;SDS011;38381;53.688;10.776;2023-06-14T08:55:30;5.13;;;3.45;;
52468;SDS011;38381;53.688;10.776;2023-06-14T09:00:32;4.82;;;3.70;;
52468;SDS011;38381;53.688;10.776;2023-06-14T09:05:34;3.95;;;2.53;;
52468;SDS011;38381;53.688;10.776;2023-06-14T09:10:35;3.87;;;2.77;;
52468;SDS011;38381;53.688;10.776;2023-06-14T09:20:37;5.00;;;3.20;;
52468;SDS011;38381;53.688;10.776;2023-06-14T09:25:41;4.67;;;3.17;;
52468;SDS011;38381;53.688;10.776;2023-06-14T09:30:46;4.88;;;2.88;;
52468;SDS011;38381;53.688;10.776;2023-06-14T09:35:50;8.60;;;3.43;;
52468;SDS011;38381;53.688;10.776;2023-06-14T09:40:51;6.10;;;3.38;;
52468;SDS011;38381;53.688;10.776;2023-06-14T09:45:52;3.90;;;2.60;;
52468;SDS011;38381;53.688;10.776;2023-06-14T09:50:54;3.78;;;3.20;;
52468;SDS011;38381;53.688;10.776;2023-06-14T09:55:58;8.90;;;3.33;;
52468;SDS011;38381;53.688;10.776;2023-06-14T10:00:59;7.20;;;2.73;;
52468;SDS011;38381;53.688;10.776;2023-06-14T10:06:00;6.70;;;3.17;;
52468;SDS011;38381;53.688;10.776;2023-06-14T10:11:07;4.75;;;2.45;;
52468;SDS011;38381;53.688;10.776;2023-06-14T10:16:19;8.17;;;2.87;;
52468;SDS011;38381;53.688;10.776;2023-06-14T10:21:37;4.60;;;2.75;;
52468;SDS011;38381;53.688;10.776;2023-06-14T10:26:50;3.40;;;2.63;;
52468;SDS011;38381;53.688;10.776;2023-06-14T10:31:56;3.75;;;2.67;;
52468;SDS011;38381;53.688;10.776;2023-06-14T10:37:04;7.65;;;3.10;;
52468;SDS011;38381;53.688;10.776;2023-06-14T10:42:06;6.57;;;2.97;;
52468;SDS011;38381;53.688;10.776;2023-06-14T10:47:09;4.00;;;2.88;;
52468;SDS011;38381;53.688;10.776;2023-06-14T10:52:12;5.07;;;2.70;;
52468;SDS011;38381;53.688;10.776;2023-06-14T10:57:19;7.43;;;2.58;;
52468;SDS011;38381;53.688;10.776;2023-06-14T11:13:06;5.28;;;2.72;;
52468;SDS011;38381;53.688;10.776;2023-06-14T11:18:07;3.88;;;2.25;;
52468;SDS011;38381;53.688;10.776;2023-06-14T11:23:11;3.97;;;2.53;;
52468;SDS011;38381;53.688;10.776;2023-06-14T11:28:12;4.20;;;2.40;;
52468;SDS011;38381;53.688;10.776;2023-06-14T11:33:16;4.50;;;2.07;;
52468;SDS011;38381;53.688;10.776;2023-06-14T11:38:18;6.80;;;2.22;;
52468;SDS011;38381;53.688;10.776;2023-06-14T11:43:19;4.33;;;2.77;;
52468;SDS011;38381;53.688;10.776;2023-06-14T11:48:20;3.43;;;2.70;;
52468;SDS011;38381;53.688;10.776;2023-06-14T11:53:20;3.75;;;2.78;;
52468;SDS011;38381;53.688;10.776;2023-06-14T11:58:21;4.90;;;2.47;;
52468;SDS011;38381;53.688;10.776;2023-06-14T12:03:24;4.37;;;2.27;;
52468;SDS011;38381;53.688;10.776;2023-06-14T12:08:31;9.27;;;2.42;;
52468;SDS011;38381;53.688;10.776;2023-06-14T12:13:41;3.45;;;2.13;;
52468;SDS011;38381;53.688;10.776;2023-06-14T12:18:43;4.72;;;2.53;;
52468;SDS011;38381;53.688;10.776;2023-06-14T12:28:45;3.60;;;2.55;;
52468;SDS011;38381;53.688;10.776;2023-06-14T12:33:47;3.65;;;2.00;;
52468;SDS011;38381;53.688;10.776;2023-06-14T12:38:49;3.97;;;2.33;;
52468;SDS011;38381;53.688;10.776;2023-06-14T12:43:53;6.03;;;2.80;;
52468;SDS011;38381;53.688;10.776;2023-06-14T12:48:53;5.57;;;2.20;;
52468;SDS011;38381;53.688;10.776;2023-06-14T12:53:54;5.37;;;2.40;;
52468;SDS011;38381;53.688;10.776;2023-06-14T12:58:54;5.83;;;2.77;;
52468;SDS011;38381;53.688;10.776;2023-06-14T13:03:55;3.53;;;1.93;;
52468;SDS011;38381;53.688;10.776;2023-06-14T13:08:55;5.57;;;2.40;;
52468;SDS011;38381;53.688;10.776;2023-06-14T13:13:57;4.07;;;3.38;;
52468;SDS011;38381;53.688;10.776;2023-06-14T13:18:58;6.57;;;2.80;;
52468;SDS011;38381;53.688;10.776;2023-06-14T13:23:58;5.43;;;2.80;;
52468;SDS011;38381;53.688;10.776;2023-06-14T13:28:59;3.83;;;2.17;;
52468;SDS011;38381;53.688;10.776;2023-06-14T13:33:59;7.40;;;2.23;;
52468;SDS011;38381;53.688;10.776;2023-06-14T13:39:00;2.67;;;2.07;;
52468;SDS011;38381;53.688;10.776;2023-06-14T13:44:00;4.83;;;3.20;;
52468;SDS011;38381;53.688;10.776;2023-06-14T13:49:04;7.40;;;2.50;;
52468;SDS011;38381;53.688;10.776;2023-06-14T13:54:05;5.60;;;2.75;;
52468;SDS011;38381;53.688;10.776;2023-06-14T13:59:06;4.47;;;1.97;;
52468;SDS011;38381;53.688;10.776;2023-06-14T14:04:06;4.93;;;3.23;;
52468;SDS011;38381;53.688;10.776;2023-06-14T14:09:07;3.10;;;2.17;;
52468;SDS011;38381;53.688;10.776;2023-06-14T14:14:08;3.70;;;2.15;;
52468;SDS011;38381;53.688;10.776;2023-06-14T14:19:10;3.70;;;2.15;;
52468;SDS011;38381;53.688;10.776;2023-06-14T14:24:10;3.70;;;2.23;;
52468;SDS011;38381;53.688;10.776;2023-06-14T14:29:11;2.90;;;1.93;;
52468;SDS011;38381;53.688;10.776;2023-06-14T14:34:12;10.23;;;2.70;;
52468;SDS011;38381;53.688;10.776;2023-06-14T14:39:12;5.87;;;1.87;;
52468;SDS011;38381;53.688;10.776;2023-06-14T14:44:12;4.47;;;2.57;;
52468;SDS011;38381;53.688;10.776;2023-06-14T14:49:13;4.63;;;2.37;;
52468;SDS011;38381;53.688;10.776;2023-06-14T14:54:13;4.37;;;1.97;;
52468;SDS011;38381;53.688;10.776;2023-06-14T14:59:14;4.37;;;2.03;;
52468;SDS011;38381;53.688;10.776;2023-06-14T15:04:14;3.30;;;2.23;;
52468;SDS011;38381;53.688;10.776;2023-06-14T15:09:15;5.43;;;2.03;;
52468;SDS011;38381;53.688;10.776;2023-06-14T15:14:15;3.57;;;1.73;;
52468;SDS011;38381;53.688;10.776;2023-06-14T15:19:17;3.87;;;2.23;;
52468;SDS011;38381;53.688;10.776;2023-06-14T15:24:18;5.57;;;2.10;;
52468;SDS011;38381;53.688;10.776;2023-06-14T15:29:18;3.97;;;2.13;;
52468;SDS011;38381;53.688;10.776;2023-06-14T15:34:19;4.93;;;2.17;;
52468;SDS011;38381;53.688;10.776;2023-06-14T15:39:19;4.37;;;1.83;;
52468;SDS011;38381;53.688;10.776;2023-06-14T15:44:20;9.82;;;2.78;;
52468;SDS011;38381;53.688;10.776;2023-06-14T15:49:20;3.78;;;1.80;;
52468;SDS011;38381;53.688;10.776;2023-06-14T15:54:21;3.95;;;2.70;;
52468;SDS011;38381;53.688;10.776;2023-06-14T15:59:21;9.03;;;2.30;;
52468;SDS011;38381;53.688;10.776;2023-06-14T16:04:22;8.07;;;2.00;;
52468;SDS011;38381;53.688;10.776;2023-06-14T16:09:22;3.22;;;1.85;;
52468;SDS011;38381;53.688;10.776;2023-06-14T16:14:23;3.03;;;1.58;;
52468;SDS011;38381;53.688;10.776;2023-06-14T16:19:23;3.05;;;2.30;;
52468;SDS011;38381;53.688;10.776;2023-06-14T16:24:24;2.40;;;1.75;;
52468;SDS011;38381;53.688;10.776;2023-06-14T16:29:24;2.22;;;1.60;;
52468;SDS011;38381;53.688;10.776;2023-06-14T16:34:25;2.80;;;1.50;;
52468;SDS011;38381;53.688;10.776;2023-06-14T16:39:26;3.67;;;1.90;;
52468;SDS011;38381;53.688;10.776;2023-06-14T16:44:26;2.53;;;1.83;;
52468;SDS011;38381;53.688;10.776;2023-06-14T16:49:27;3.03;;;1.70;;
52468;SDS011;38381;53.688;10.776;2023-06-14T16:54:28;2.05;;;1.63;;
52468;SDS011;38381;53.688;10.776;2023-06-14T16:59:28;3.67;;;1.85;;
52468;SDS011;38381;53.688;10.776;2023-06-14T17:04:30;2.77;;;1.97;;
52468;SDS011;38381;53.688;10.776;2023-06-14T17:09:30;8.03;;;4.10;;
52468;SDS011;38381;53.688;10.776;2023-06-14T17:14:31;5.90;;;2.00;;
52468;SDS011;38381;53.688;10.776;2023-06-14T17:19:32;4.87;;;2.00;;
52468;SDS011;38381;53.688;10.776;2023-06-14T17:24:33;3.85;;;1.38;;
52468;SDS011;38381;53.688;10.776;2023-06-14T17:29:33;12.07;;;2.70;;
52468;SDS011;38381;53.688;10.776;2023-06-14T17:34:33;5.23;;;2.20;;
52468;SDS011;38381;53.688;10.776;2023-06-14T17:39:34;2.90;;;1.92;;
52468;SDS011;38381;53.688;10.776;2023-06-14T17:44:36;4.20;;;2.03;;
52468;SDS011;38381;53.688;10.776;2023-06-14T17:49:36;2.97;;;2.08;;
52468;SDS011;38381;53.688;10.776;2023-06-14T17:54:37;9.48;;;2.13;;
52468;SDS011;38381;53.688;10.776;2023-06-14T17:59:37;3.77;;;1.87;;
52468;SDS011;38381;53.688;10.776;2023-06-14T18:04:38;3.88;;;1.75;;
52468;SDS011;38381;53.688;10.776;2023-06-14T18:09:38;3.65;;;2.63;;
52468;SDS011;38381;53.688;10.776;2023-06-14T18:14:39;2.97;;;2.20;;
52468;SDS011;38381;53.688;10.776;2023-06-14T18:19:39;5.72;;;2.30;;
52468;SDS011;38381;53.688;10.776;2023-06-14T18:24:42;3.08;;;1.85;;
52468;SDS011;38381;53.688;10.776;2023-06-14T18:29:42;5.88;;;1.98;;
52468;SDS011;38381;53.688;10.776;2023-06-14T18:34:43;3.60;;;2.10;;
52468;SDS011;38381;53.688;10.776;2023-06-14T18:39:43;4.85;;;2.50;;
52468;SDS011;38381;53.688;10.776;2023-06-14T18:44:44;3.55;;;1.88;;
52468;SDS011;38381;53.688;10.776;2023-06-14T18:49:44;2.80;;;2.00;;
52468;SDS011;38381;53.688;10.776;2023-06-14T18:54:45;2.67;;;2.13;;
52468;SDS011;38381;53.688;10.776;2023-06-14T18:59:45;4.70;;;1.80;;
52468;SDS011;38381;53.688;10.776;2023-06-14T19:04:46;1.90;;;1.70;;
52468;SDS011;38381;53.688;10.776;2023-06-14T19:09:46;5.05;;;2.20;;
52468;SDS011;38381;53.688;10.776;2023-06-14T19:14:47;7.43;;;2.53;;
52468;SDS011;38381;53.688;10.776;2023-06-14T19:19:47;2.20;;;1.75;;
52468;SDS011;38381;53.688;10.776;2023-06-14T19:24:48;2.40;;;1.55;;
52468;SDS011;38381;53.688;10.776;2023-06-14T19:29:48;5.93;;;3.00;;
52468;SDS011;38381;53.688;10.776;2023-06-14T19:34:49;3.85;;;2.03;;
52468;SDS011;38381;53.688;10.776;2023-06-14T19:39:49;5.03;;;2.08;;
52468;SDS011;38381;53.688;10.776;2023-06-14T19:44:50;2.70;;;1.83;;
52468;SDS011;38381;53.688;10.776;2023-06-14T19:49:50;3.55;;;2.35;;
52468;SDS011;38381;53.688;10.776;2023-06-14T19:54:51;6.25;;;2.35;;
52468;SDS011;38381;53.688;10.776;2023-06-14T19:59:51;2.20;;;2.00;;
52468;SDS011;38381;53.688;10.776;2023-06-14T20:04:52;4.07;;;2.20;;
52468;SDS011;38381;53.688;10.776;2023-06-14T20:09:54;3.58;;;2.20;;
52468;SDS011;38381;53.688;10.776;2023-06-14T20:14:55;6.63;;;2.63;;
52468;SDS011;38381;53.688;10.776;2023-06-14T20:19:55;2.38;;;1.90;;
52468;SDS011;38381;53.688;10.776;2023-06-14T20:24:56;2.90;;;1.90;;
52468;SDS011;38381;53.688;10.776;2023-06-14T20:29:56;3.47;;;2.50;;
52468;SDS011;38381;53.688;10.776;2023-06-14T20:34:57;3.42;;;2.00;;
52468;SDS011;38381;53.688;10.776;2023-06-14T20:39:57;2.63;;;1.98;;
52468;SDS011;38381;53.688;10.776;2023-06-14T20:45:03;3.80;;;2.03;;
52468;SDS011;38381;53.688;10.776;2023-06-14T20:50:04;8.43;;;2.47;;
52468;SDS011;38381;53.688;10.776;2023-06-14T20:55:05;3.45;;;2.10;;
52468;SDS011;38381;53.688;10.776;2023-06-14T21:00:07;4.00;;;2.77;;
52468;SDS011;38381;53.688;10.776;2023-06-14T21:05:11;3.95;;;2.17;;
52468;SDS011;38381;53.688;10.776;2023-06-14T21:10:11;2.92;;;2.17;;
52468;SDS011;38381;53.688;10.776;2023-06-14T21:15:12;3.58;;;2.30;;
52468;SDS011;38381;53.688;10.776;2023-06-14T21:20:12;4.72;;;2.42;;
52468;SDS011;38381;53.688;10.776;2023-06-14T21:25:13;13.80;;;5.60;;
52468;SDS011;38381;53.688;10.776;2023-06-14T21:30:14;8.25;;;5.20;;
52468;SDS011;38381;53.688;10.776;2023-06-14T21:35:18;4.30;;;2.60;;
52468;SDS011;38381;53.688;10.776;2023-06-14T21:40:19;2.72;;;2.05;;
52468;SDS011;38381;53.688;10.776;2023-06-14T21:45:19;2.85;;;2.15;;
52468;SDS011;38381;53.688;10.776;2023-06-14T21:50:20;6.78;;;2.90;;
52468;SDS011;38381;53.688;10.776;2023-06-14T21:55:20;5.43;;;2.65;;
52468;SDS011;38381;53.688;10.776;2023-06-14T22:00:23;4.15;;;2.80;;
52468;SDS011;38381;53.688;10.776;2023-06-14T22:05:24;3.33;;;3.00;;
52468;SDS011;38381;53.688;10.776;2023-06-14T22:10:25;4.30;;;2.90;;
52468;SDS011;38381;53.688;10.776;2023-06-14T22:15:26;4.13;;;2.38;;
52468;SDS011;38381;53.688;10.776;2023-06-14T22:20:27;6.63;;;3.00;;
52468;SDS011;38381;53.688;10.776;2023-06-14T22:25:29;5.67;;;2.90;;
52468;SDS011;38381;53.688;10.776;2023-06-14T22:30:30;3.90;;;2.55;;
52468;SDS011;38381;53.688;10.776;2023-06-14T22:35:32;3.30;;;2.55;;
52468;SDS011;38381;53.688;10.776;2023-06-14T22:40:33;3.25;;;2.55;;
52468;SDS011;38381;53.688;10.776;2023-06-14T22:45:33;3.67;;;2.30;;
52468;SDS011;38381;53.688;10.776;2023-06-14T22:50:36;2.45;;;2.25;;
52468;SDS011;38381;53.688;10.776;2023-06-14T22:55:37;3.28;;;2.38;;
52468;SDS011;38381;53.688;10.776;2023-06-14T23:00:38;3.33;;;2.77;;
52468;SDS011;38381;53.688;10.776;2023-06-14T23:05:38;4.88;;;3.72;;
52468;SDS011;38381;53.688;10.776;2023-06-14T23:10:41;2.97;;;2.33;;
52468;SDS011;38381;53.688;10.776;2023-06-14T23:15:42;2.83;;;2.33;;
52468;SDS011;38381;53.688;10.776;2023-06-14T23:20:42;5.68;;;3.53;;
52468;SDS011;38381;53.688;10.776;2023-06-14T23:25:43;5.20;;;2.90;;
52468;SDS011;38381;53.688;10.776;2023-06-14T23:30:45;5.47;;;2.75;;
52468;SDS011;38381;53.688;10.776;2023-06-14T23:35:46;7.32;;;3.35;;
52468;SDS011;38381;53.688;10.776;2023-06-14T23:40:47;7.50;;;3.10;;
52468;SDS011;38381;53.688;10.776;2023-06-14T23:45:50;2.85;;;2.60;;
52468;SDS011;38381;53.688;10.776;2023-06-14T23:50:55;4.18;;;3.17;;
52468;SDS011;38381;53.688;10.776;2023-06-14T23:55:56;4.32;;;2.70;;
